Time;durP1;ratioP1;P1;durP2;ratioP2;P2;SDS_P1;SDS_P2;PMS_P1;PMS_P2;Temp;Humidity;BMP_temperature;BMP_pressure;BME280_temperature;BME280_humidity;BME280_pressure;Samples;Min_cycle;Max_cycle;Signal;HPM_P1;HPM_P2
2023/04/24 00:01:21;;;;;;;3.80;2.50;;;;;;;-145.18;100.00;46670.16;4973012;28;20066;-73
2023/04/24 00:03:46;;;;;;;6.20;3.30;;;;;;;-145.18;100.00;46668.22;4973715;28;20066;-73
2023/04/24 00:06:12;;;;;;;7.50;4.07;;;;;;;-145.18;100.00;46670.16;4956322;28;20039;-73
2023/04/24 00:08:37;;;;;;;7.93;4.50;;;;;;;-145.18;100.00;46668.22;4973883;28;20038;-73
2023/04/24 00:11:03;;;;;;;6.90;4.20;;;;;;;-145.18;100.00;46666.25;4969270;28;20042;-73
2023/04/24 00:13:29;;;;;;;4.93;3.20;;;;;;;-145.18;100.00;46666.25;4973731;28;20030;-74
2023/04/24 00:15:55;;;;;;;2.50;1.23;;;;;;;-145.18;100.00;46666.25;4973642;28;20117;-74
2023/04/24 00:18:21;;;;;;;2.23;0.70;;;;;;;-145.18;100.00;46664.31;4971522;28;20122;-74
2023/04/24 00:20:46;;;;;;;2.87;0.60;;;;;;;-145.18;100.00;46666.25;4973797;28;20447;-74
2023/04/24 00:23:12;;;;;;;0.83;0.40;;;;;;;-145.18;100.00;46666.25;4956172;28;20185;-74
2023/04/24 00:25:37;;;;;;;0.47;0.40;;;;;;;-145.18;100.00;46662.34;4973823;28;20186;-74
2023/04/24 00:28:03;;;;;;;0.20;0.20;;;;;;;-145.18;100.00;46664.31;4972922;28;20039;-73
2023/04/24 00:30:28;;;;;;;0.70;0.50;;;;;;;-145.18;100.00;46664.31;4962278;28;20086;-74
2023/04/24 00:32:54;;;;;;;3.00;0.70;;;;;;;-145.18;100.00;46660.41;4968626;28;20038;-74
2023/04/24 00:35:19;;;;;;;0.90;0.60;;;;;;;-145.18;100.00;46662.34;4954242;28;20039;-74
2023/04/24 00:37:45;;;;;;;2.33;1.10;;;;;;;-145.18;100.00;46662.34;4953744;29;20043;-74
2023/04/24 00:40:11;;;;;;;2.80;1.47;;;;;;;-145.18;100.00;46664.31;4953869;29;20038;-74
2023/04/24 00:42:36;;;;;;;2.73;1.47;;;;;;;-145.18;100.00;46660.41;4953826;29;20387;-74
2023/04/24 00:45:03;;;;;;;3.67;2.20;;;;;;;-145.18;100.00;46664.31;4953860;29;20039;-74
2023/04/24 00:47:28;;;;;;;8.17;2.83;;;;;;;-145.18;100.00;46662.34;4953634;29;20023;-74
2023/04/24 00:49:54;;;;;;;4.50;3.20;;;;;;;-145.18;100.00;46662.34;4961512;28;20284;-74
2023/04/24 00:52:20;;;;;;;7.13;3.40;;;;;;;-145.18;100.00;46660.41;4972781;28;20521;-74
2023/04/24 00:54:45;;;;;;;9.97;4.43;;;;;;;-145.18;100.00;46660.41;4973109;28;20261;-74
2023/04/24 00:57:14;;;;;;;10.63;5.37;;;;;;;-145.18;100.00;46658.44;4972543;28;20047;-74
2023/04/24 00:59:41;;;;;;;11.20;6.90;;;;;;;-145.18;100.00;46660.41;4953719;29;20027;-74
2023/04/24 01:02:08;;;;;;;15.17;8.40;;;;;;;-145.18;100.00;46656.50;4953221;28;20269;-74
2023/04/24 01:04:34;;;;;;;17.70;8.30;;;;;;;-145.18;100.00;46656.50;4936236;29;20293;-74
2023/04/24 01:07:00;;;;;;;16.53;8.50;;;;;;;-145.18;100.00;46658.44;4937026;29;20300;-74
2023/04/24 01:09:25;;;;;;;18.87;9.10;;;;;;;-145.18;100.00;46664.31;4960139;28;20615;-73
2023/04/24 01:11:51;;;;;;;17.73;9.50;;;;;;;-145.18;100.00;46664.31;4972400;28;20058;-73
2023/04/24 01:14:16;;;;;;;16.73;9.20;;;;;;;-145.18;100.00;46658.44;4972705;28;20038;-74
2023/04/24 01:16:42;;;;;;;16.17;9.17;;;;;;;-145.18;100.00;46658.44;4972519;28;20403;-74
2023/04/24 01:19:10;;;;;;;14.93;9.57;;;;;;;-145.18;100.00;46662.34;4972629;28;20117;-74
2023/04/24 01:21:37;;;;;;;15.77;9.50;;;;;;;-145.18;100.00;46662.34;4971588;28;20018;-74
2023/04/24 01:24:04;;;;;;;12.97;8.90;;;;;;;-145.18;100.00;46662.34;4970447;28;20276;-73
2023/04/24 01:26:29;;;;;;;14.27;8.80;;;;;;;-145.18;100.00;46658.44;4972521;28;20260;-73
2023/04/24 01:28:55;;;;;;;16.53;7.87;;;;;;;-145.18;100.00;46660.41;4968322;28;20330;-73
2023/04/24 01:31:21;;;;;;;15.30;9.10;;;;;;;-145.18;100.00;46662.34;4972174;28;20031;-74
2023/04/24 01:33:47;;;;;;;17.53;9.80;;;;;;;-145.18;100.00;46664.31;4971859;28;20055;-74
2023/04/24 01:36:13;;;;;;;18.37;9.43;;;;;;;-145.18;100.00;46660.41;4955488;28;20051;-74
2023/04/24 01:38:39;;;;;;;16.40;9.23;;;;;;;-145.18;100.00;46664.31;4962457;28;20281;-74
2023/04/24 01:41:04;;;;;;;16.37;9.03;;;;;;;-145.18;100.00;46664.31;4971931;28;20273;-75
2023/04/24 01:43:30;;;;;;;13.23;8.63;;;;;;;-145.18;100.00;46664.31;4971859;28;20042;-74
2023/04/24 01:45:55;;;;;;;16.93;8.53;;;;;;;-145.18;100.00;46668.22;4972281;28;20031;-74
2023/04/24 01:48:20;;;;;;;15.87;7.33;;;;;;;-145.18;100.00;46668.22;4963749;28;20527;-74
2023/04/24 01:50:46;;;;;;;14.87;7.93;;;;;;;-145.18;100.00;46664.31;4969505;28;20034;-74
2023/04/24 01:53:11;;;;;;;12.33;7.20;;;;;;;-145.18;100.00;46660.41;4971807;28;20113;-74
2023/04/24 01:55:37;;;;;;;16.13;7.10;;;;;;;-145.18;100.00;46670.16;4971514;28;20039;-74
2023/04/24 01:58:03;;;;;;;14.13;7.33;;;;;;;-145.18;100.00;46670.16;4971717;28;20076;-74
2023/04/24 02:02:53;;;;;;;12.40;6.00;;;;;;;-145.18;100.00;46668.22;5190169;22;20053;-73
2023/04/24 02:05:19;;;;;;;11.00;5.93;;;;;;;-145.18;100.00;46666.25;4999219;28;20177;-73
2023/04/24 02:07:44;;;;;;;8.67;5.97;;;;;;;-145.18;100.00;46668.22;4993122;28;20108;-73
2023/04/24 02:10:10;;;;;;;12.77;5.93;;;;;;;-145.18;100.00;46666.25;4991444;28;20473;-73
2023/04/24 02:12:35;;;;;;;12.10;6.37;;;;;;;-145.18;100.00;46672.13;4996938;28;20072;-73
2023/04/24 02:15:01;;;;;;;12.80;7.20;;;;;;;-145.18;100.00;46666.25;4992669;28;20390;-73
2023/04/24 02:17:26;;;;;;;13.50;8.33;;;;;;;-145.18;100.00;46668.22;4991362;28;20048;-74
2023/04/24 02:19:52;;;;;;;20.23;10.03;;;;;;;-145.18;100.00;46668.22;4991163;28;20043;-73
2023/04/24 02:22:17;;;;;;;21.67;10.40;;;;;;;-145.18;100.00;46668.22;4973439;28;20468;-74
2023/04/24 02:24:43;;;;;;;24.47;12.43;;;;;;;-145.18;100.00;46668.22;4991354;28;20182;-73
2023/04/24 02:27:08;;;;;;;17.20;10.17;;;;;;;-145.18;100.00;46670.16;4990738;28;20466;-73
2023/04/24 02:29:34;;;;;;;26.23;13.07;;;;;;;-145.18;100.00;46672.13;4991192;28;20076;-73
2023/04/24 02:32:00;;;;;;;28.67;13.10;;;;;;;-145.18;100.00;46666.25;4990903;28;20483;-73
2023/04/24 02:34:25;;;;;;;20.90;11.60;;;;;;;-145.18;100.00;46670.16;4990981;28;20276;-73
2023/04/24 02:36:51;;;;;;;27.40;12.83;;;;;;;-145.18;100.00;46672.13;4982208;28;20045;-73
2023/04/24 02:39:16;;;;;;;22.97;12.43;;;;;;;-145.18;100.00;46672.13;5009586;28;20041;-73
2023/04/24 02:41:42;;;;;;;22.80;11.90;;;;;;;-145.18;100.00;46672.13;5007477;28;20033;-74
2023/04/24 02:44:08;;;;;;;24.17;11.43;;;;;;;-145.18;100.00;46672.13;5010275;28;20038;-73
2023/04/24 02:46:33;;;;;;;21.60;11.47;;;;;;;-145.18;100.00;46672.13;5010558;28;20782;-73
2023/04/24 02:48:59;;;;;;;21.63;11.23;;;;;;;-145.18;100.00;46672.13;5010120;28;20034;-73
2023/04/24 02:51:24;;;;;;;22.77;12.60;;;;;;;-145.18;100.00;46668.22;5010525;28;20038;-73
2023/04/24 02:53:50;;;;;;;23.63;11.40;;;;;;;-145.18;100.00;46668.22;5008356;28;20096;-73
2023/04/24 02:56:15;;;;;;;24.27;9.80;;;;;;;-145.18;100.00;46674.06;4994815;28;20038;-73
2023/04/24 02:58:42;;;;;;;21.23;10.07;;;;;;;-145.18;100.00;46672.13;4994538;28;20031;-73
2023/04/24 03:01:07;;;;;;;16.73;9.90;;;;;;;-145.18;100.00;46676.03;5010973;28;20026;-73
2023/04/24 03:03:32;;;;;;;23.80;9.80;;;;;;;-145.18;100.00;46674.06;5013773;28;20303;-73
2023/04/24 03:05:58;;;;;;;18.37;8.73;;;;;;;-145.18;100.00;46672.13;5013870;28;20156;-73
2023/04/24 03:08:24;;;;;;;16.87;9.07;;;;;;;-145.18;100.00;46674.06;5013995;28;20116;-73
2023/04/24 03:10:49;;;;;;;14.80;9.60;;;;;;;-145.18;100.00;46676.03;5013910;28;20390;-72
2023/04/24 03:13:17;;;;;;;20.17;9.67;;;;;;;-145.18;100.00;46672.13;4996438;28;20034;-73
2023/04/24 03:15:43;;;;;;;12.17;8.07;;;;;;;-145.18;100.00;46676.03;5011907;28;20038;-73
2023/04/24 03:18:08;;;;;;;14.30;8.30;;;;;;;-145.18;100.00;46674.06;4950232;28;20311;-73
2023/04/24 03:20:34;;;;;;;14.60;7.40;;;;;;;-145.18;100.00;46672.13;4989974;28;20038;-73
2023/04/24 03:22:59;;;;;;;14.90;7.03;;;;;;;-145.18;100.00;46677.97;4993790;28;20038;-73
2023/04/24 03:25:25;;;;;;;14.97;5.70;;;;;;;-145.18;100.00;46668.22;4994451;28;20510;-73
2023/04/24 03:27:51;;;;;;;15.13;6.13;;;;;;;-145.18;100.00;46670.16;4993903;28;20039;-73
2023/04/24 03:30:16;;;;;;;10.80;5.37;;;;;;;-145.18;100.00;46672.13;4994416;28;20058;-73
2023/04/24 03:32:41;;;;;;;9.63;4.97;;;;;;;-145.18;100.00;46674.06;4993949;28;20770;-73
2023/04/24 03:35:08;;;;;;;8.43;5.67;;;;;;;-145.18;100.00;46677.97;4994500;28;20125;-73
2023/04/24 03:37:33;;;;;;;9.27;5.00;;;;;;;-145.18;100.00;46679.94;5013184;28;20520;-73
2023/04/24 03:39:59;;;;;;;9.33;5.10;;;;;;;-145.18;100.00;46676.03;5013441;28;20276;-73
2023/04/24 03:42:24;;;;;;;11.07;6.03;;;;;;;-145.18;100.00;46676.03;5013079;28;20048;-73
2023/04/24 03:44:50;;;;;;;9.60;5.33;;;;;;;-145.18;100.00;46679.94;5013552;28;20117;-73
2023/04/24 03:47:15;;;;;;;12.70;5.10;;;;;;;-145.18;100.00;46670.16;5012864;28;20030;-73
2023/04/24 03:49:40;;;;;;;9.80;5.47;;;;;;;-145.18;100.00;46666.25;5013617;28;20038;-73
2023/04/24 03:52:06;;;;;;;11.87;5.20;;;;;;;-145.18;100.00;46666.25;5013277;28;20041;-73
2023/04/24 03:54:31;;;;;;;7.97;5.07;;;;;;;-145.18;100.00;46670.16;5013514;28;20393;-73
2023/04/24 03:56:57;;;;;;;6.80;3.73;;;;;;;-145.18;100.00;46670.16;5013265;28;20073;-73
2023/04/24 03:59:22;;;;;;;7.37;3.53;;;;;;;-145.18;100.00;46670.16;5013259;28;20464;-73
2023/04/24 04:01:47;;;;;;;6.40;3.97;;;;;;;-145.18;100.00;46672.13;5010926;28;20049;-72
2023/04/24 04:04:13;;;;;;;6.83;3.90;;;;;;;-145.18;100.00;46670.16;5012970;28;20038;-73
2023/04/24 04:06:38;;;;;;;7.30;3.50;;;;;;;-145.18;100.00;46676.03;5002848;28;20040;-72
2023/04/24 04:09:04;;;;;;;5.37;3.20;;;;;;;-145.18;100.00;46668.22;4992188;28;20066;-73
2023/04/24 04:11:30;;;;;;;7.63;2.90;;;;;;;-145.18;100.00;46672.13;4992816;28;20034;-72
2023/04/24 04:13:56;;;;;;;3.53;2.50;;;;;;;-145.18;100.00;46672.13;4989519;28;20053;-73
2023/04/24 04:16:22;;;;;;;2.67;1.90;;;;;;;-145.18;100.00;46670.16;4991957;28;20323;-73
2023/04/24 04:18:48;;;;;;;4.47;2.40;;;;;;;-145.18;100.00;46672.13;4975032;28;20300;-73
2023/04/24 04:21:13;;;;;;;6.53;3.73;;;;;;;-145.18;100.00;46664.31;4993646;28;20117;-73
2023/04/24 04:23:39;;;;;;;6.63;3.87;;;;;;;-145.18;100.00;46666.25;4990243;28;20502;-73
2023/04/24 04:26:05;;;;;;;8.03;4.17;;;;;;;-145.18;100.00;46672.13;4994229;28;20058;-73
2023/04/24 04:28:31;;;;;;;12.73;4.10;;;;;;;-145.18;100.00;46664.31;4992822;28;20406;-73
2023/04/24 04:30:57;;;;;;;5.67;3.70;;;;;;;-145.18;100.00;46668.22;4992911;28;20033;-73
2023/04/24 04:33:25;;;;;;;7.23;3.00;;;;;;;-145.18;100.00;46662.34;4992935;28;20508;-73
2023/04/24 04:35:51;;;;;;;5.27;2.80;;;;;;;-145.18;100.00;46666.25;4992069;28;20035;-73
2023/04/24 04:38:18;;;;;;;3.00;2.00;;;;;;;-145.18;100.00;46668.22;4992641;28;20280;-73
2023/04/24 04:40:44;;;;;;;3.93;1.90;;;;;;;-145.18;100.00;46670.16;5002584;28;20287;-73
2023/04/24 04:43:10;;;;;;;6.67;2.60;;;;;;;-145.18;100.00;46668.22;5012040;28;20264;-73
2023/04/24 04:45:37;;;;;;;8.30;3.30;;;;;;;-145.18;100.00;46664.31;5004973;28;20804;-73
2023/04/24 04:48:03;;;;;;;6.80;3.20;;;;;;;-145.18;100.00;46666.25;4992296;28;20847;-73
2023/04/24 04:50:29;;;;;;;6.40;4.30;;;;;;;-145.18;100.00;46666.25;4992429;28;20268;-72
2023/04/24 04:52:54;;;;;;;7.03;4.10;;;;;;;-145.18;100.00;46668.22;4991211;28;20290;-73
2023/04/24 04:55:20;;;;;;;6.50;4.03;;;;;;;-145.18;100.00;46662.34;4975348;28;20442;-73
2023/04/24 04:57:46;;;;;;;5.47;3.60;;;;;;;-145.18;100.00;46664.31;4992299;28;20042;-73
2023/04/24 05:00:12;;;;;;;5.63;3.60;;;;;;;-145.18;100.00;46666.25;4992486;28;20034;-73
2023/04/24 05:02:38;;;;;;;6.83;3.53;;;;;;;-145.18;100.00;46666.25;4991925;28;20292;-73
2023/04/24 05:05:05;;;;;;;5.47;3.80;;;;;;;-145.18;100.00;46664.31;4991553;28;20644;-73
2023/04/24 05:07:30;;;;;;;7.17;3.83;;;;;;;-145.18;100.00;46662.34;4991828;28;20764;-73
2023/04/24 05:09:56;;;;;;;12.27;5.60;;;;;;;-145.18;100.00;46662.34;4990521;28;20314;-72
2023/04/24 05:12:21;;;;;;;11.90;4.33;;;;;;;-145.18;100.00;46662.34;4990775;28;20022;-72
2023/04/24 05:14:46;;;;;;;6.73;4.00;;;;;;;-145.18;100.00;46664.31;4989914;28;20137;-73
2023/04/24 05:17:12;;;;;;;8.13;4.40;;;;;;;-145.18;100.00;46662.34;4990930;28;20251;-72
2023/04/24 05:19:38;;;;;;;7.53;4.10;;;;;;;-145.18;100.00;46662.34;4990343;28;20101;-72
2023/04/24 05:22:06;;;;;;;7.90;5.57;;;;;;;-145.18;100.00;46660.41;4990402;28;20046;-72
2023/04/24 05:24:32;;;;;;;8.50;4.50;;;;;;;-145.18;100.00;46660.41;4990509;28;20355;-72
2023/04/24 05:26:58;;;;;;;8.43;3.83;;;;;;;-145.18;100.00;46662.34;4990312;28;20264;-72
2023/04/24 05:29:24;;;;;;;9.40;4.80;;;;;;;-145.18;100.00;46666.25;4990144;28;20034;-72
2023/04/24 05:31:49;;;;;;;8.30;4.37;;;;;;;-145.18;100.00;46660.41;4990223;28;20800;-72
2023/04/24 05:34:16;;;;;;;7.13;3.60;;;;;;;-145.18;100.00;46660.41;4990287;28;20085;-72
2023/04/24 05:36:42;;;;;;;6.30;2.77;;;;;;;-145.18;100.00;46668.22;4987689;28;20037;-72
2023/04/24 05:39:08;;;;;;;6.87;3.03;;;;;;;-145.18;100.00;46666.25;4989960;28;20301;-72
2023/04/24 05:41:34;;;;;;;3.70;2.40;;;;;;;-145.18;100.00;46666.25;4990117;28;20088;-72
2023/04/24 05:43:59;;;;;;;6.07;1.90;;;;;;;-145.18;100.00;46668.22;4989802;28;20092;-72
2023/04/24 05:46:24;;;;;;;3.20;1.57;;;;;;;-145.18;100.00;46662.34;4990361;28;20038;-73
2023/04/24 05:48:50;;;;;;;4.93;2.50;;;;;;;-145.18;100.00;46662.34;4989702;28;20023;-73
2023/04/24 05:51:15;;;;;;;9.13;3.17;;;;;;;-145.18;100.00;46656.50;4990216;28;20078;-73
2023/04/24 05:53:40;;;;;;;4.43;2.53;;;;;;;-145.18;100.00;46664.31;4990014;28;20062;-74
2023/04/24 05:56:06;;;;;;;9.33;3.60;;;;;;;-145.18;100.00;46658.44;4991345;28;20072;-73
2023/04/24 05:58:31;;;;;;;5.43;3.00;;;;;;;-145.18;100.00;46660.41;4994373;28;20026;-73
2023/04/24 06:00:58;;;;;;;7.50;4.80;;;;;;;-145.18;100.00;46660.41;4997040;28;20033;-73
2023/04/24 06:03:24;;;;;;;9.27;5.70;;;;;;;-145.18;100.00;46660.41;4978370;28;20057;-74
2023/04/24 06:05:53;;;;;;;15.73;6.70;;;;;;;-145.18;100.00;46658.44;4979022;28;20283;-74
2023/04/24 06:08:18;;;;;;;15.17;7.83;;;;;;;-145.18;100.00;46660.41;4979007;28;20053;-74
2023/04/24 06:10:44;;;;;;;17.97;8.37;;;;;;;-145.18;100.00;46660.41;4997149;28;20275;-73
2023/04/24 06:13:09;;;;;;;19.90;8.30;;;;;;;-145.18;100.00;46660.41;4977681;28;20089;-72
2023/04/24 06:15:35;;;;;;;15.93;6.93;;;;;;;-145.18;100.00;46654.53;4990576;28;20066;-72
2023/04/24 06:18:00;;;;;;;22.63;7.87;;;;;;;-145.18;100.00;46662.34;4972954;28;20442;-72
2023/04/24 06:20:26;;;;;;;13.07;8.43;;;;;;;-145.18;100.00;46660.41;4991300;28;20030;-72
2023/04/24 06:22:51;;;;;;;18.80;9.53;;;;;;;-145.18;100.00;46660.41;4973227;28;20034;-72
2023/04/24 06:25:18;;;;;;;24.30;10.17;;;;;;;-145.18;100.00;46660.41;4991157;28;20038;-72
2023/04/24 06:27:44;;;;;;;17.10;8.07;;;;;;;-145.18;100.00;46662.34;4989767;28;20041;-72
2023/04/24 06:30:09;;;;;;;17.60;10.30;;;;;;;-145.18;100.00;46660.41;4973230;28;20272;-71
2023/04/24 06:32:35;;;;;;;17.87;8.97;;;;;;;-145.18;100.00;46660.41;4990850;28;20079;-71
2023/04/24 06:35:00;;;;;;;17.10;7.83;;;;;;;-145.18;100.00;46668.22;4990625;28;20533;-71
2023/04/24 06:37:26;;;;;;;23.80;8.33;;;;;;;-145.18;100.00;46666.25;4990950;28;20570;-71
2023/04/24 06:39:51;;;;;;;19.83;8.77;;;;;;;-145.18;100.00;46662.34;4990456;28;20105;-72
2023/04/24 06:42:16;;;;;;;17.53;7.80;;;;;;;-145.18;100.00;46666.25;4990766;28;20471;-71
2023/04/24 06:44:42;;;;;;;25.43;9.60;;;;;;;-145.18;100.00;46664.31;4990630;28;20125;-72
2023/04/24 06:47:09;;;;;;;23.60;9.10;;;;;;;-145.18;100.00;46666.25;4990742;28;20030;-71
2023/04/24 06:49:35;;;;;;;18.97;9.40;;;;;;;-145.18;100.00;46664.31;4990505;28;20031;-72
2023/04/24 06:52:01;;;;;;;20.10;7.23;;;;;;;-145.18;100.00;46660.41;4990684;28;20298;-72
2023/04/24 06:54:26;;;;;;;17.47;6.93;;;;;;;-145.18;100.00;46662.34;4973128;28;20280;-72
2023/04/24 06:56:52;;;;;;;24.10;8.07;;;;;;;-145.18;100.00;46660.41;4972893;28;20145;-72
2023/04/24 06:59:17;;;;;;;21.77;9.37;;;;;;;-145.18;100.00;46664.31;4963733;28;20046;-72
2023/04/24 07:01:43;;;;;;;22.87;7.20;;;;;;;-145.18;100.00;46662.34;4983026;28;20036;-72
2023/04/24 07:04:08;;;;;;;22.20;5.90;;;;;;;-145.18;100.00;46666.25;4986647;28;20047;-71
2023/04/24 07:06:35;;;;;;;19.27;5.27;;;;;;;-145.18;100.00;46662.34;4989962;28;20078;-72
2023/04/24 07:09:01;;;;;;;17.63;5.87;;;;;;;-145.18;100.00;46664.31;4989615;28;20030;-72
2023/04/24 07:11:28;;;;;;;17.50;5.77;;;;;;;-145.18;100.00;46662.34;4989768;28;21047;-72
2023/04/24 07:13:55;;;;;;;18.63;5.73;;;;;;;-145.18;100.00;46674.06;4989628;28;20075;-71
2023/04/24 07:16:20;;;;;;;19.20;5.23;;;;;;;-145.18;100.00;46668.22;4989735;28;20371;-71
2023/04/24 07:18:45;;;;;;;11.13;4.97;;;;;;;-145.18;100.00;46664.31;4989683;28;20370;-71
2023/04/24 07:21:11;;;;;;;18.77;5.67;;;;;;;-145.18;100.00;46662.34;4989737;28;20117;-71
2023/04/24 07:23:36;;;;;;;8.13;3.17;;;;;;;-145.18;100.00;46668.22;4989552;28;20037;-71
2023/04/24 07:26:02;;;;;;;17.03;6.03;;;;;;;-145.18;100.00;46674.06;4989586;28;20033;-71
2023/04/24 07:28:30;;;;;;;22.67;4.53;;;;;;;-145.18;100.00;46668.22;4989519;28;20034;-71
2023/04/24 07:30:56;;;;;;;8.33;3.93;;;;;;;-145.18;100.00;46674.06;4989516;28;20026;-71
2023/04/24 07:33:22;;;;;;;20.83;4.70;;;;;;;-145.18;100.00;46668.22;4989780;28;20275;-71
2023/04/24 07:35:47;;;;;;;26.43;4.50;;;;;;;-145.18;100.00;46664.31;4989286;28;20478;-72
2023/04/24 07:38:13;;;;;;;17.10;4.90;;;;;;;-145.18;100.00;46672.13;4990864;28;20472;-71
2023/04/24 07:40:38;;;;;;;16.27;5.60;;;;;;;-145.18;100.00;46670.16;4993030;28;20113;-71
2023/04/24 07:43:03;;;;;;;14.23;5.10;;;;;;;-145.18;100.00;46674.06;4992857;28;20042;-71
2023/04/24 07:45:30;;;;;;;9.30;3.47;;;;;;;-145.18;100.00;46674.06;4993312;28;20122;-71
2023/04/24 07:47:56;;;;;;;12.77;3.87;;;;;;;-145.18;100.00;46676.03;4997789;28;20061;-72
2023/04/24 07:50:22;;;;;;;9.07;3.43;;;;;;;-145.18;100.00;46676.03;4999367;28;20354;-72
2023/04/24 07:52:47;;;;;;;9.90;2.90;;;;;;;-145.18;100.00;46677.97;4993000;28;20572;-71
2023/04/24 07:55:13;;;;;;;9.73;2.53;;;;;;;-145.18;100.00;46676.03;4992777;28;20050;-71
2023/04/24 07:57:38;;;;;;;8.10;3.53;;;;;;;-145.18;100.00;46672.13;4993071;28;20042;-71
2023/04/24 08:00:06;;;;;;;11.03;2.93;;;;;;;-145.18;100.00;46670.16;4991094;28;20034;-72
2023/04/24 08:02:31;;;;;;;11.53;2.73;;;;;;;-145.18;100.00;46676.03;4990939;28;20081;-71
2023/04/24 08:04:57;;;;;;;7.40;2.27;;;;;;;-145.18;100.00;46674.06;4992701;28;20749;-71
2023/04/24 08:07:23;;;;;;;10.40;3.63;;;;;;;-145.18;100.00;46676.03;4993262;28;20046;-71
2023/04/24 08:09:48;;;;;;;10.10;3.33;;;;;;;-145.18;100.00;46670.16;4975609;28;20042;-71
2023/04/24 08:12:14;;;;;;;10.70;3.00;;;;;;;-145.18;100.00;46677.97;4987596;28;20276;-71
2023/04/24 08:14:39;;;;;;;6.97;1.83;;;;;;;-145.18;100.00;46668.22;4975979;28;20054;-72
2023/04/24 08:17:05;;;;;;;13.20;2.67;;;;;;;-145.18;100.00;46676.03;4973547;28;20138;-72
2023/04/24 08:19:30;;;;;;;9.77;2.70;;;;;;;-145.18;100.00;46676.03;4973621;28;20398;-71
2023/04/24 08:21:56;;;;;;;11.73;3.00;;;;;;;-145.18;100.00;46674.06;4973547;28;20082;-72
2023/04/24 08:24:22;;;;;;;10.07;2.10;;;;;;;-145.18;100.00;46677.97;4973404;28;20101;-72
2023/04/24 08:26:50;;;;;;;7.00;2.60;;;;;;;-145.18;100.00;46677.97;4973311;28;20054;-72
2023/04/24 08:29:15;;;;;;;7.83;2.23;;;;;;;-145.18;100.00;46676.03;4973501;28;20268;-71
2023/04/24 08:31:41;;;;;;;12.57;2.57;;;;;;;-145.18;100.00;46679.94;4973478;28;20717;-72
2023/04/24 08:34:06;;;;;;;18.07;2.50;;;;;;;-145.18;100.00;46683.84;4973196;28;20130;-72
2023/04/24 08:36:32;;;;;;;5.47;1.47;;;;;;;-145.18;100.00;46683.84;4973452;28;20467;-72
2023/04/24 08:38:57;;;;;;;12.53;2.37;;;;;;;-145.18;100.00;46685.78;4972843;28;20066;-72
2023/04/24 08:41:25;;;;;;;7.53;2.23;;;;;;;-145.18;100.00;46687.75;4973130;28;20121;-72
2023/04/24 08:43:51;;;;;;;6.27;1.70;;;;;;;-145.18;100.00;46689.69;4973256;28;20022;-72
2023/04/24 08:46:19;;;;;;;8.47;2.17;;;;;;;-145.18;100.00;46689.69;4973553;28;20346;-72
2023/04/24 08:48:45;;;;;;;6.07;1.73;;;;;;;-145.18;100.00;46691.66;4972663;28;20066;-72
2023/04/24 08:51:11;;;;;;;11.83;1.67;;;;;;;-145.18;100.00;46689.69;4972090;28;20312;-72
2023/04/24 08:53:37;;;;;;;8.60;1.93;;;;;;;-145.18;100.00;46699.47;4972880;28;20279;-73
2023/04/24 08:56:03;;;;;;;9.47;1.70;;;;;;;-145.18;100.00;46699.47;4973027;28;20045;-72
2023/04/24 08:58:30;;;;;;;8.50;2.30;;;;;;;-145.18;100.00;46683.84;4971587;28;20043;-73
2023/04/24 09:00:56;;;;;;;7.03;1.73;;;;;;;-145.18;100.00;46666.25;4971800;28;20265;-73
2023/04/24 09:03:22;;;;;;;6.03;1.40;;;;;;;-145.18;100.00;46636.94;4972322;28;20666;-73
2023/04/24 09:05:50;;;;;;;9.37;1.53;;;;;;;-145.18;100.00;46613.50;4972879;28;20777;-73
2023/04/24 09:08:18;;;;;;;6.10;1.73;;;;;;;-145.18;100.00;46593.97;4972734;28;20277;-73
2023/04/24 09:10:44;;;;;;;2.53;1.07;;;;;;;-145.18;100.00;46574.44;4972945;28;20265;-73
2023/04/24 09:13:10;;;;;;;3.73;1.40;;;;;;;-145.18;100.00;46574.44;4984391;28;20371;-73
2023/04/24 09:15:36;;;;;;;4.93;1.60;;;;;;;-145.18;100.00;46574.44;4974074;28;20150;-72
2023/04/24 09:18:02;;;;;;;7.27;1.43;;;;;;;-145.18;100.00;46580.31;4991919;28;20383;-72
2023/04/24 09:20:28;;;;;;;5.40;1.60;;;;;;;-145.18;100.00;46590.06;4992036;28;20370;-72
2023/04/24 09:22:55;;;;;;;5.40;1.07;;;;;;;-145.18;100.00;46588.13;4991882;28;20034;-73
2023/04/24 09:25:21;;;;;;;9.03;2.80;;;;;;;-145.18;100.00;46590.06;4991886;28;20038;-73
2023/04/24 09:27:46;;;;;;;5.60;1.20;;;;;;;-145.18;100.00;46597.88;4991717;28;20307;-73
2023/04/24 09:30:12;;;;;;;9.43;1.43;;;;;;;-145.18;100.00;46601.78;4998471;28;20038;-73
2023/04/24 09:32:38;;;;;;;1.53;0.80;;;;;;;-145.18;100.00;46615.47;5008353;28;20041;-73
2023/04/24 09:35:07;;;;;;;5.57;1.23;;;;;;;-145.18;100.00;46615.47;5010963;28;20079;-73
2023/04/24 09:37:38;;;;;;;10.23;1.70;;;;;;;-145.18;100.00;46623.28;4994045;28;20069;-73
2023/04/24 09:40:20;;;;;;;3.80;0.93;;;;;;;-145.18;100.00;46635.00;4991286;28;20327;-73
2023/04/24 09:42:52;;;;;;;5.97;0.93;;;;;;;-145.18;100.00;46629.13;4991691;28;20283;-73
2023/04/24 09:45:18;;;;;;;4.30;1.17;;;;;;;-145.18;100.00;46635.00;4991257;28;20315;-73
2023/04/24 09:47:43;;;;;;;5.57;1.50;;;;;;;-145.18;100.00;46644.78;4991425;28;20319;-73
2023/04/24 09:50:14;;;;;;;8.33;0.60;;;;;;;-145.18;100.00;46631.09;4987080;28;20113;-73
2023/04/24 09:52:41;;;;;;;2.50;0.73;;;;;;;-145.18;100.00;46640.88;4991602;28;20034;-73
2023/04/24 09:55:19;;;;;;;1.17;0.50;;;;;;;-145.18;100.00;46644.78;4990806;28;20326;-73
2023/04/24 09:58:05;;;;;;;9.60;2.33;;;;;;;-145.18;100.00;46629.13;4991219;28;20386;-72
2023/04/24 10:00:32;;;;;;;2.72;0.82;;;;;;;-145.18;100.00;46615.47;4991017;28;20300;-72
2023/04/24 10:03:00;;;;;;;3.13;0.73;;;;;;;-145.18;100.00;46609.59;4990929;28;20058;-73
2023/04/24 10:05:32;;;;;;;2.43;0.70;;;;;;;-145.18;100.00;46611.56;4989180;28;20295;-73
2023/04/24 10:08:03;;;;;;;1.00;0.53;;;;;;;-145.18;100.00;46613.50;4990144;28;20256;-73
2023/04/24 10:10:29;;;;;;;1.10;0.70;;;;;;;-145.18;100.00;46621.31;4990710;28;20314;-73
2023/04/24 10:12:55;;;;;;;8.90;1.00;;;;;;;-145.18;100.00;46627.19;4991059;28;20264;-73
2023/04/24 10:15:21;;;;;;;0.90;0.53;;;;;;;-145.18;100.00;46627.19;4990721;28;20393;-73
2023/04/24 10:17:53;;;;;;;5.00;0.73;;;;;;;-145.18;100.00;46623.28;4991090;28;20137;-73
2023/04/24 10:20:24;;;;;;;3.53;0.90;;;;;;;-145.18;100.00;46633.06;4995384;28;20327;-73
2023/04/24 10:22:52;;;;;;;1.00;0.60;;;;;;;-145.18;100.00;46644.78;5008613;28;20695;-73
2023/04/24 10:25:22;;;;;;;3.53;0.60;;;;;;;-145.18;100.00;46660.41;4992970;28;20736;-73
2023/04/24 10:27:49;;;;;;;3.47;0.50;;;;;;;-145.18;100.00;46668.22;4992734;28;20667;-73
2023/04/24 10:30:17;;;;;;;2.40;0.50;;;;;;;-145.18;100.00;46697.50;4992604;28;20272;-74
2023/04/24 10:32:43;;;;;;;1.60;0.60;;;;;;;-145.18;100.00;46679.94;5008989;28;20295;-74
2023/04/24 10:35:10;;;;;;;1.53;0.70;;;;;;;-145.18;100.00;46719.00;4993619;28;20359;-73
2023/04/24 10:37:38;;;;;;;4.77;0.63;;;;;;;-145.18;100.00;46719.00;4989289;28;20288;-73
2023/04/24 10:40:05;;;;;;;3.90;0.63;;;;;;;-145.18;100.00;46734.63;4971764;28;20353;-74
2023/04/24 10:42:31;;;;;;;3.50;0.40;;;;;;;-145.18;100.00;46765.88;4989436;28;20818;-73
2023/04/24 10:44:57;;;;;;;1.87;0.50;;;;;;;-145.18;100.00;46771.75;4987902;28;20395;-74
2023/04/24 10:47:23;;;;;;;1.50;0.40;;;;;;;-145.18;100.00;46760.00;4981157;28;20030;-74
2023/04/24 10:49:51;;;;;;;1.80;0.50;;;;;;;-145.18;100.00;46748.28;4987320;28;20620;-73
2023/04/24 10:52:16;;;;;;;5.33;0.50;;;;;;;-145.18;100.00;46746.34;4989426;28;20092;-73
2023/04/24 10:54:46;;;;;;;3.20;0.93;;;;;;;-145.18;100.00;46730.72;4989082;28;20358;-73
2023/04/24 10:57:18;;;;;;;7.67;0.80;;;;;;;-145.18;100.00;46705.31;4988839;28;20034;-74
2023/04/24 10:59:44;;;;;;;2.13;0.53;;;;;;;-145.18;100.00;46695.56;4989039;28;20268;-74
2023/04/24 11:02:10;;;;;;;2.37;0.50;;;;;;;-145.18;100.00;46679.94;4987736;28;20272;-73